Bandar Abbas International Airport

Airport
ICAO code: 
OIKB
IATA Code: 
BND
Summary
ICAO Region: 
MID
Territory: 
Location: 
Bandar Abbas, Homozgan
Serving: 
Bandar Abbas
Elevation: 
22 ft
Coordinates: 
Aerial View: 
27° 12' 34.192" N, 56° 22' 7.562" E
Metar
Observation
OIKB 281200Z 22014KT 6000 NSC 23/14 Q1015 A2999 NOSIG
Station
Bandarabbass
Date/Time
2022-01-28 12:00:00
Wind direction
220°
Wind speed
14 kts
Lowest cloud amount
nil significant cloud
Temperature
23°C
Dew point
14°C
Humidity
56%
QNH
1015 hPa
Weather condition
n/a

International airport on eastern side of the city of Bandar Abbas, Iran.

Climatology

Warm desert climate (Köppen climate classification BWh).

Runways

Designator Length Width Surface Rops
03L/21R 3457 30 ASP Yes/Yes
03R/21L 3660 45 ASP Yes/Yes
Airport map: 
Aerial View: 

SKYbrary Partners:

Safety knowledge contributed by: